Time;durP1;ratioP1;P1;durP2;ratioP2;P2;SDS_P1;SDS_P2;PMS_P1;PMS_P2;Temp;Humidity;BMP_temperature;BMP_pressure;BME280_temperature;BME280_humidity;BME280_pressure;Samples;Min_cycle;Max_cycle;Signal;HPM_P1;HPM_P2
2021/11/23 00:02:25;;;;;;;7.43;1.38;;;;;;;5.76;95.22;100775.28;4966395;29;20027;-69
2021/11/23 00:04:51;;;;;;;8.35;1.35;;;;;;;5.75;94.88;100776.97;4966178;29;20034;-69
2021/11/23 00:07:17;;;;;;;12.60;1.65;;;;;;;5.73;95.04;100788.09;4966159;29;20031;-69
2021/11/23 00:09:42;;;;;;;7.03;1.27;;;;;;;5.70;95.02;100792.34;4948601;29;20023;-69
2021/11/23 00:12:07;;;;;;;4.60;1.33;;;;;;;5.68;94.95;100799.22;4966254;29;20491;-69
2021/11/23 00:14:33;;;;;;;3.58;1.20;;;;;;;5.64;94.89;100797.41;4965963;29;20039;-68
2021/11/23 00:16:58;;;;;;;5.00;1.40;;;;;;;5.54;94.68;100787.78;4965922;29;20214;-68
2021/11/23 00:19:24;;;;;;;10.02;1.30;;;;;;;5.60;94.61;100808.50;4965745;29;20027;-69
2021/11/23 00:21:49;;;;;;;14.32;1.85;;;;;;;5.56;94.51;100806.69;4966045;29;20019;-68
2021/11/23 00:24:15;;;;;;;10.43;1.50;;;;;;;5.50;94.56;100804.88;4965547;29;20027;-68
2021/11/23 00:26:40;;;;;;;4.00;1.42;;;;;;;5.50;94.60;100804.88;4965887;29;20031;-68
2021/11/23 00:29:06;;;;;;;4.18;1.45;;;;;;;5.48;94.50;100803.97;4965894;29;20086;-69
2021/11/23 00:31:31;;;;;;;7.50;1.83;;;;;;;5.37;94.44;100788.31;4965548;29;20033;-69
2021/11/23 00:33:56;;;;;;;5.82;1.25;;;;;;;5.44;94.34;100808.22;4965703;29;20444;-69
2021/11/23 00:36:22;;;;;;;6.60;1.48;;;;;;;5.44;94.48;100815.94;4965059;28;20031;-69
2021/11/23 00:38:47;;;;;;;9.20;1.40;;;;;;;5.42;94.46;100819.31;4965226;29;20019;-68
2021/11/23 00:41:17;;;;;;;7.13;1.63;;;;;;;5.39;94.23;100812.41;4965399;29;20085;-69
2021/11/23 00:43:43;;;;;;;6.32;1.38;;;;;;;5.38;94.36;100817.53;4965777;29;20054;-69
2021/11/23 00:46:08;;;;;;;4.95;1.23;;;;;;;5.36;94.23;100814.91;4980351;28;20031;-69
2021/11/23 00:48:33;;;;;;;7.47;1.27;;;;;;;5.35;94.36;100807.16;4965378;29;20023;-69
2021/11/23 00:50:59;;;;;;;5.82;1.42;;;;;;;5.32;94.20;100810.53;4965218;29;20027;-69
2021/11/23 00:53:25;;;;;;;7.25;1.58;;;;;;;5.21;94.02;100788.03;4965317;29;20027;-70
2021/11/23 00:55:51;;;;;;;4.63;2.05;;;;;;;5.29;94.04;100810.47;4963836;29;20453;-69
2021/11/23 00:58:17;;;;;;;6.45;1.40;;;;;;;5.26;94.13;100815.56;4965138;29;20050;-69
2021/11/23 01:00:43;;;;;;;5.10;1.88;;;;;;;5.25;93.95;100816.41;4965095;29;20046;-69
2021/11/23 01:03:08;;;;;;;6.60;1.30;;;;;;;5.21;93.98;100811.19;4965100;29;20409;-70
2021/11/23 01:05:34;;;;;;;7.22;1.58;;;;;;;5.13;93.86;100799.88;4965055;29;20046;-69
2021/11/23 01:07:59;;;;;;;8.43;1.50;;;;;;;5.20;93.83;100812.03;4947811;29;20019;-69
2021/11/23 01:10:25;;;;;;;12.23;3.30;;;;;;;5.18;93.89;100813.72;4964881;29;20332;-69
2021/11/23 01:12:51;;;;;;;8.88;1.35;;;;;;;5.16;93.78;100814.53;4963682;29;20406;-69
2021/11/23 01:15:17;;;;;;;7.97;1.65;;;;;;;4.99;93.70;100801.28;4964814;29;20503;-71
2021/11/23 01:17:42;;;;;;;5.30;1.33;;;;;;;5.10;93.79;100819.53;4964767;29;20051;-71
2021/11/23 01:20:10;;;;;;;5.03;1.20;;;;;;;5.12;93.70;100833.28;4964890;29;20535;-71
2021/11/23 01:22:36;;;;;;;3.38;1.20;;;;;;;5.10;93.65;100838.41;4964960;29;20023;-71
2021/11/23 01:25:02;;;;;;;9.95;1.50;;;;;;;5.08;93.72;100842.66;4964973;29;20038;-71
2021/11/23 01:27:27;;;;;;;6.28;1.50;;;;;;;5.00;93.74;100833.91;4964964;29;20039;-71
2021/11/23 01:29:53;;;;;;;6.70;1.30;;;;;;;5.08;93.72;100848.69;4964907;29;20015;-72
2021/11/23 01:32:18;;;;;;;4.95;1.23;;;;;;;5.10;93.90;100848.72;4965139;29;20034;-72
2021/11/23 01:34:43;;;;;;;3.95;1.35;;;;;;;5.11;93.81;100858.19;4965121;29;20150;-72
2021/11/23 01:37:09;;;;;;;8.35;1.65;;;;;;;5.03;93.86;100847.69;4965035;29;20050;-71
2021/11/23 01:39:35;;;;;;;5.32;1.08;;;;;;;5.01;93.76;100851.97;4965050;29;20042;-72
2021/11/23 01:42:00;;;;;;;4.22;1.27;;;;;;;4.96;93.85;100849.28;4965278;29;20550;-71
2021/11/23 01:44:26;;;;;;;8.73;2.25;;;;;;;5.08;93.86;100861.53;4965213;29;20034;-72
2021/11/23 01:46:51;;;;;;;5.43;1.38;;;;;;;5.11;93.81;100868.47;4965127;29;20031;-70
2021/11/23 01:49:17;;;;;;;9.43;1.40;;;;;;;5.10;93.82;100861.56;4967532;28;20479;-71
2021/11/23 01:51:43;;;;;;;4.88;1.17;;;;;;;5.11;93.98;100865.91;4968977;29;20241;-71
2021/11/23 01:54:09;;;;;;;5.90;1.20;;;;;;;5.09;93.89;100865.00;4968984;29;20031;-71
2021/11/23 01:56:34;;;;;;;7.65;1.33;;;;;;;5.11;94.00;100865.91;4968716;29;20025;-71
2021/11/23 01:59:00;;;;;;;5.85;0.95;;;;;;;5.13;94.08;100874.50;4968738;29;20015;-72
2021/11/23 02:01:25;;;;;;;7.53;1.25;;;;;;;5.17;94.03;100872.88;4968625;29;20081;-72
2021/11/23 02:03:51;;;;;;;6.35;1.10;;;;;;;5.13;93.96;100859.06;4968659;29;20360;-72
2021/11/23 02:06:16;;;;;;;8.48;1.50;;;;;;;5.12;94.01;100853.88;4951483;29;20030;-72
2021/11/23 02:08:42;;;;;;;5.13;1.52;;;;;;;5.12;93.96;100848.75;4968731;29;20027;-72
2021/11/23 02:11:07;;;;;;;3.70;1.17;;;;;;;5.24;94.29;100869.59;4968810;29;20105;-72
2021/11/23 02:13:33;;;;;;;7.15;1.70;;;;;;;5.27;94.11;100868.81;4968554;29;20372;-72
2021/11/23 02:15:59;;;;;;;7.00;1.40;;;;;;;5.25;94.02;100853.31;4966973;29;20030;-72
2021/11/23 02:18:26;;;;;;;5.82;1.33;;;;;;;5.25;93.88;100855.00;4968287;29;20047;-72
2021/11/23 02:20:52;;;;;;;5.43;1.40;;;;;;;5.27;93.73;100858.50;4968275;29;20034;-72
2021/11/23 02:23:19;;;;;;;5.50;1.10;;;;;;;5.25;93.83;100861.03;4968185;29;20086;-73
2021/11/23 02:25:44;;;;;;;5.65;1.17;;;;;;;5.23;93.82;100859.25;4968134;29;20027;-72
2021/11/23 02:28:11;;;;;;;8.32;1.45;;;;;;;5.25;93.73;100865.31;4968158;29;20037;-72
2021/11/23 02:30:52;;;;;;;6.32;1.45;;;;;;;5.26;93.88;100861.91;4968020;29;20074;-73
2021/11/23 02:33:21;;;;;;;3.50;1.13;;;;;;;5.29;93.85;100867.09;4968074;29;20090;-73
2021/11/23 02:35:48;;;;;;;4.38;1.00;;;;;;;5.29;93.71;100867.09;4968131;29;20503;-72
2021/11/23 02:38:16;;;;;;;4.85;1.10;;;;;;;5.30;93.84;100871.44;4968163;28;20041;-73
2021/11/23 02:40:41;;;;;;;7.10;1.45;;;;;;;5.17;93.62;100865.16;4968113;28;20019;-72
2021/11/23 02:43:07;;;;;;;3.85;1.20;;;;;;;5.27;93.59;100879.09;4982554;28;20039;-72
2021/11/23 02:45:33;;;;;;;4.85;1.10;;;;;;;5.25;93.52;100875.63;4968325;29;20083;-72
2021/11/23 02:48:00;;;;;;;5.88;0.90;;;;;;;5.23;93.44;100872.13;4967884;29;20035;-72
2021/11/23 02:50:27;;;;;;;2.20;1.05;;;;;;;5.18;93.29;100875.47;4967721;29;20027;-71
2021/11/23 02:52:52;;;;;;;5.32;1.00;;;;;;;5.15;93.10;100871.97;4967874;29;20140;-71
2021/11/23 02:55:23;;;;;;;5.00;1.00;;;;;;;5.12;93.26;100875.34;4967659;29;20060;-71
2021/11/23 02:57:50;;;;;;;1.52;0.80;;;;;;;5.13;93.31;100879.66;4967667;29;20046;-73
2021/11/23 03:00:24;;;;;;;4.53;1.20;;;;;;;5.13;93.30;100892.53;4949504;29;20023;-71
2021/11/23 03:02:50;;;;;;;3.03;0.80;;;;;;;5.17;93.27;100894.34;4967709;29;20083;-72
2021/11/23 03:05:18;;;;;;;8.55;1.38;;;;;;;5.18;93.56;100905.50;4967767;29;20047;-72
2021/11/23 03:07:44;;;;;;;7.90;1.73;;;;;;;5.19;93.52;100896.97;4967944;29;20102;-72
2021/11/23 03:10:10;;;;;;;3.13;1.45;;;;;;;5.20;93.57;100898.69;4967470;29;20317;-72
2021/11/23 03:12:38;;;;;;;6.85;1.40;;;;;;;5.19;93.43;100902.09;4967374;29;20027;-72
2021/11/23 03:15:05;;;;;;;8.80;1.50;;;;;;;5.16;93.39;100897.75;4967543;29;20023;-72
2021/11/23 03:17:31;;;;;;;2.17;1.33;;;;;;;5.06;93.31;100888.94;4967156;29;20046;-73
2021/11/23 03:19:56;;;;;;;8.43;1.70;;;;;;;5.01;93.09;100887.13;4967294;29;20082;-71
2021/11/23 03:22:22;;;;;;;8.90;1.42;;;;;;;5.00;93.18;100891.38;4967474;29;20023;-73
2021/11/23 03:24:47;;;;;;;3.42;1.17;;;;;;;4.92;93.26;100873.19;4967180;29;20031;-73
2021/11/23 03:27:13;;;;;;;6.97;1.23;;;;;;;4.96;93.02;100885.31;4981248;28;20034;-72
2021/11/23 03:29:40;;;;;;;2.85;1.70;;;;;;;4.85;93.01;100863.63;4965938;29;20487;-73
2021/11/23 03:32:07;;;;;;;3.75;1.45;;;;;;;4.94;93.20;100886.09;4966873;28;20428;-73
2021/11/23 03:34:37;;;;;;;3.78;1.40;;;;;;;4.96;93.17;100893.03;4966921;29;20062;-73
2021/11/23 03:37:05;;;;;;;3.28;1.50;;;;;;;4.90;93.20;100879.16;4967285;29;20026;-73
2021/11/23 03:39:31;;;;;;;2.25;0.95;;;;;;;4.94;92.96;100892.13;4949629;29;20033;-73
2021/11/23 03:41:56;;;;;;;10.55;1.80;;;;;;;4.85;92.85;100897.06;4967152;29;20050;-73
2021/11/23 03:44:22;;;;;;;3.30;0.90;;;;;;;4.93;93.01;100916.13;4966666;29;20035;-73
2021/11/23 03:46:47;;;;;;;3.03;1.05;;;;;;;4.88;92.93;100906.53;4966882;29;20110;-73
2021/11/23 03:49:12;;;;;;;5.63;1.20;;;;;;;4.91;92.80;100922.06;4981769;28;20038;-73
2021/11/23 03:51:38;;;;;;;6.07;1.10;;;;;;;4.80;92.54;100906.38;4966747;29;20199;-73
2021/11/23 03:54:03;;;;;;;7.40;1.88;;;;;;;4.85;92.33;100933.09;4966511;29;20039;-73
2021/11/23 03:56:29;;;;;;;7.55;1.27;;;;;;;4.81;92.13;100931.25;4966439;29;20031;-73
2021/11/23 03:58:54;;;;;;;4.38;1.20;;;;;;;4.73;91.93;100927.66;4966573;29;20039;-72
2021/11/23 04:01:19;;;;;;;3.45;1.20;;;;;;;4.57;91.77;100929.81;4966497;29;20034;-72
2021/11/23 04:03:45;;;;;;;8.70;1.38;;;;;;;4.45;91.71;100918.44;4966484;29;20019;-73
2021/11/23 04:06:10;;;;;;;6.03;1.63;;;;;;;4.57;91.64;100942.69;4981180;28;20057;-72
2021/11/23 04:08:35;;;;;;;2.45;0.90;;;;;;;4.55;91.79;100949.50;4965407;29;20020;-72
2021/11/23 04:11:01;;;;;;;2.03;1.02;;;;;;;4.38;91.79;100921.66;4965707;28;20027;-73
2021/11/23 04:13:26;;;;;;;7.65;2.67;;;;;;;4.54;91.78;100937.47;4965643;29;20039;-73
2021/11/23 04:15:52;;;;;;;8.50;1.55;;;;;;;4.52;91.84;100932.28;4966076;29;20051;-72
2021/11/23 04:18:18;;;;;;;8.18;1.80;;;;;;;4.49;91.88;100933.94;4966011;29;20055;-73
2021/11/23 04:20:43;;;;;;;7.40;1.65;;;;;;;4.53;91.82;100940.88;4964984;29;20027;-73
2021/11/23 04:23:08;;;;;;;4.57;1.48;;;;;;;4.52;91.75;100939.16;4966019;29;20023;-73
2021/11/23 04:25:34;;;;;;;8.30;2.20;;;;;;;4.39;91.73;100931.13;4966010;29;20058;-73
2021/11/23 04:28:00;;;;;;;3.42;1.20;;;;;;;4.45;91.96;100945.81;4966037;29;20027;-73
2021/11/23 04:30:26;;;;;;;9.82;1.45;;;;;;;4.49;92.06;100954.50;4965846;29;20027;-72
2021/11/23 04:32:52;;;;;;;10.05;1.63;;;;;;;4.40;92.08;100931.97;4965885;29;20031;-71
2021/11/23 04:35:18;;;;;;;7.63;1.50;;;;;;;4.52;91.95;100954.56;4966143;29;20037;-74
2021/11/23 04:37:44;;;;;;;7.68;2.72;;;;;;;4.45;92.22;100932.97;4965983;29;20023;-73
2021/11/23 04:40:12;;;;;;;5.47;1.85;;;;;;;4.54;92.22;100945.19;4965630;29;20027;-72
2021/11/23 04:42:38;;;;;;;10.15;1.60;;;;;;;4.55;92.21;100939.22;4965934;29;20579;-73
2021/11/23 04:45:06;;;;;;;2.28;1.17;;;;;;;4.55;92.42;100932.34;4965610;29;20031;-73
2021/11/23 04:47:31;;;;;;;3.08;1.35;;;;;;;4.55;92.40;100941.78;4965889;29;20086;-72
2021/11/23 04:49:57;;;;;;;3.72;1.20;;;;;;;4.52;92.35;100929.72;4965730;29;20047;-71
2021/11/23 04:52:23;;;;;;;11.57;1.63;;;;;;;4.61;92.58;100946.22;4965668;29;20022;-72
2021/11/23 04:54:49;;;;;;;5.82;1.23;;;;;;;4.60;92.59;100947.91;4965445;29;20235;-73
2021/11/23 04:57:14;;;;;;;6.38;1.35;;;;;;;4.59;92.62;100943.59;4965597;29;20087;-72
2021/11/23 04:59:40;;;;;;;4.35;1.17;;;;;;;4.63;92.60;100953.16;4965165;29;20020;-72
2021/11/23 05:02:05;;;;;;;2.35;0.93;;;;;;;4.64;92.47;100956.56;4965420;29;20444;-72
2021/11/23 05:04:30;;;;;;;2.75;1.10;;;;;;;4.56;92.44;100928.97;4965438;29;20031;-72
2021/11/23 05:06:56;;;;;;;3.58;1.10;;;;;;;4.50;92.16;100904.81;4965471;29;20684;-73
2021/11/23 05:09:21;;;;;;;1.52;0.70;;;;;;;4.62;91.90;100917.94;4963849;29;20456;-72
2021/11/23 05:11:48;;;;;;;3.35;0.85;;;;;;;4.62;91.72;100912.81;4965035;29;20027;-75
2021/11/23 05:14:14;;;;;;;3.67;1.15;;;;;;;4.77;91.43;100924.31;4965402;29;20030;-77
2021/11/23 05:16:40;;;;;;;5.18;1.10;;;;;;;4.71;91.24;100909.59;4947683;29;20607;-78
2021/11/23 05:19:05;;;;;;;1.67;0.90;;;;;;;4.76;91.05;100908.00;4965063;29;20029;-77
2021/11/23 05:21:31;;;;;;;4.18;0.80;;;;;;;4.98;90.74;100939.38;4964841;29;20031;-77
2021/11/23 05:23:56;;;;;;;1.83;0.73;;;;;;;5.06;90.74;100944.72;4964952;28;20057;-71
2021/11/23 05:26:21;;;;;;;3.35;0.95;;;;;;;5.11;90.70;100945.69;4964609;29;20027;-74
2021/11/23 05:28:47;;;;;;;3.38;1.00;;;;;;;5.10;90.82;100949.09;4963935;29;20280;-71
2021/11/23 05:31:12;;;;;;;3.78;1.08;;;;;;;4.95;90.41;100917.00;4964122;29;20023;-71
2021/11/23 05:33:37;;;;;;;4.32;1.35;;;;;;;4.90;89.99;100936.66;4964350;29;20027;-71
2021/11/23 05:36:03;;;;;;;3.22;1.20;;;;;;;4.67;89.66;100934.38;4965032;29;20034;-70
2021/11/23 05:38:28;;;;;;;1.77;1.10;;;;;;;4.44;89.65;100914.09;4964944;29;20027;-71
2021/11/23 05:40:54;;;;;;;9.05;1.33;;;;;;;4.40;89.48;100934.53;4964923;29;20019;-70
2021/11/23 05:43:19;;;;;;;4.75;1.60;;;;;;;4.30;89.71;100933.44;4964885;29;20700;-70
2021/11/23 05:45:45;;;;;;;4.95;1.45;;;;;;;4.15;89.80;100913.34;4964948;29;20039;-71
2021/11/23 05:48:11;;;;;;;3.60;1.17;;;;;;;4.18;89.92;100932.31;4964882;29;20035;-71
2021/11/23 05:50:36;;;;;;;7.10;1.30;;;;;;;4.05;89.99;100925.09;4964757;29;20087;-72
2021/11/23 05:53:02;;;;;;;5.13;1.52;;;;;;;4.06;89.95;100942.22;4964993;29;20031;-72
2021/11/23 05:55:28;;;;;;;8.93;1.85;;;;;;;3.91;89.85;100950.41;4964558;29;20031;-73
2021/11/23 05:57:54;;;;;;;6.55;1.73;;;;;;;3.74;89.81;100932.81;4964580;29;20046;-73
2021/11/23 06:00:19;;;;;;;5.78;1.23;;;;;;;3.66;89.80;100950.56;4964503;29;20161;-73
2021/11/23 06:02:44;;;;;;;8.18;2.78;;;;;;;3.58;89.80;100950.34;4964550;29;20019;-73
2021/11/23 06:05:10;;;;;;;12.88;2.22;;;;;;;3.53;89.80;100963.88;4979619;28;20027;-73
2021/11/23 06:07:35;;;;;;;3.35;1.85;;;;;;;3.41;89.99;100955.00;4964980;29;20062;-73
2021/11/23 06:10:01;;;;;;;4.28;1.20;;;;;;;3.24;90.35;100921.13;4964336;29;20023;-73
2021/11/23 06:12:29;;;;;;;4.22;1.00;;;;;;;3.53;90.90;100946.78;4963210;29;20034;-73
2021/11/23 06:14:54;;;;;;;1.50;0.80;;;;;;;3.79;91.56;100943.22;4964458;28;20031;-74
2021/11/23 06:17:20;;;;;;;4.60;0.95;;;;;;;3.88;91.65;100910.09;4964362;29;20435;-75
2021/11/23 06:19:45;;;;;;;2.05;1.00;;;;;;;4.05;91.33;100931.09;4964288;29;20496;-75
2021/11/23 06:22:11;;;;;;;4.13;1.75;;;;;;;3.98;90.80;100921.47;4964684;29;20054;-75
2021/11/23 06:24:37;;;;;;;4.75;1.80;;;;;;;3.78;90.08;100938.91;4964424;29;20318;-74
2021/11/23 06:27:02;;;;;;;7.63;1.92;;;;;;;3.58;89.97;100950.34;4964679;29;20030;-73
2021/11/23 06:29:28;;;;;;;5.63;2.15;;;;;;;3.37;89.98;100950.56;4964626;29;20019;-73
2021/11/23 06:31:53;;;;;;;3.83;1.50;;;;;;;3.12;90.27;100926.75;4964454;29;20019;-74
2021/11/23 06:34:19;;;;;;;2.72;0.82;;;;;;;3.30;91.30;100954.69;4964689;28;20038;-74
2021/11/23 06:36:44;;;;;;;2.20;1.17;;;;;;;3.46;91.78;100937.16;4967820;29;20128;-74
2021/11/23 06:39:09;;;;;;;2.25;0.88;;;;;;;3.91;91.97;100960.69;4968100;29;20086;-75
2021/11/23 06:41:35;;;;;;;2.80;1.00;;;;;;;4.08;91.78;100958.56;4968006;29;20023;-74
2021/11/23 06:44:03;;;;;;;2.05;1.02;;;;;;;4.15;91.08;100960.50;4968296;29;20023;-74
2021/11/23 06:46:30;;;;;;;2.10;0.75;;;;;;;4.22;90.60;100952.09;4968346;29;20061;-75
2021/11/23 06:48:57;;;;;;;1.98;0.82;;;;;;;4.46;89.55;100958.72;4968025;29;20019;-75
2021/11/23 06:51:22;;;;;;;2.20;0.80;;;;;;;4.53;89.29;100956.31;4982598;28;20027;-74
2021/11/23 06:53:47;;;;;;;3.50;0.95;;;;;;;4.69;88.27;100943.00;4967797;29;20034;-74
2021/11/23 06:56:15;;;;;;;2.08;0.80;;;;;;;4.62;88.75;100943.66;4967444;29;20023;-73
2021/11/23 06:58:40;;;;;;;1.33;0.80;;;;;;;4.58;88.67;100937.56;4950397;29;20023;-73
2021/11/23 07:01:06;;;;;;;2.33;0.75;;;;;;;4.64;88.67;100942.00;4967852;29;20089;-76
2021/11/23 07:03:31;;;;;;;3.80;0.88;;;;;;;4.81;88.21;100962.13;4967736;29;20027;-74
2021/11/23 07:05:56;;;;;;;2.03;0.88;;;;;;;4.69;88.13;100943.00;4982393;28;20027;-76
2021/11/23 07:08:22;;;;;;;2.42;1.10;;;;;;;4.80;88.04;100978.41;4982413;28;20019;-74
2021/11/23 07:10:47;;;;;;;1.77;0.85;;;;;;;4.70;88.23;100975.59;4967339;29;20037;-74
2021/11/23 07:13:12;;;;;;;1.95;1.00;;;;;;;4.70;87.97;100985.91;4967684;29;20027;-75
2021/11/23 07:15:39;;;;;;;2.78;0.90;;;;;;;4.63;88.21;100983.13;4967921;29;20125;-75
2021/11/23 07:18:05;;;;;;;2.63;0.82;;;;;;;4.61;88.36;100975.38;4967388;29;20051;-75
2021/11/23 07:20:30;;;;;;;2.90;0.88;;;;;;;4.58;88.17;100975.31;4967579;29;20159;-75
2021/11/23 07:22:55;;;;;;;1.92;0.93;;;;;;;4.63;88.26;100993.41;4967679;29;20033;-75
2021/11/23 07:25:21;;;;;;;5.63;0.90;;;;;;;4.57;88.15;101000.13;4967291;29;20030;-75
2021/11/23 07:27:46;;;;;;;6.75;1.58;;;;;;;4.45;88.31;100998.13;4966468;29;20098;-75
2021/11/23 07:30:13;;;;;;;5.25;0.95;;;;;;;4.42;87.69;100989.47;4981165;28;20023;-76
2021/11/23 07:32:38;;;;;;;6.05;1.50;;;;;;;4.42;87.96;101004.88;4950204;29;20424;-75
2021/11/23 07:35:04;;;;;;;8.20;1.15;;;;;;;4.32;87.88;101008.91;4967316;29;20590;-75
2021/11/23 07:37:36;;;;;;;4.63;0.88;;;;;;;4.14;88.25;100992.16;4967302;29;20042;-76
2021/11/23 07:40:05;;;;;;;1.38;0.98;;;;;;;4.12;88.30;100993.78;4967136;29;20050;-75
2021/11/23 07:42:30;;;;;;;3.30;1.35;;;;;;;4.16;88.26;101008.50;4967431;29;20380;-75
2021/11/23 07:44:59;;;;;;;4.45;1.52;;;;;;;4.23;87.76;101009.53;4967301;29;20023;-76
2021/11/23 07:47:24;;;;;;;6.45;0.90;;;;;;;4.16;87.54;100992.19;4966940;28;20472;-75
2021/11/23 07:49:50;;;;;;;1.08;0.80;;;;;;;4.34;88.29;101018.38;4967005;29;20055;-74
2021/11/23 07:52:16;;;;;;;1.15;0.82;;;;;;;4.48;87.75;100984.47;4967104;29;20038;-76
2021/11/23 07:54:42;;;;;;;2.13;0.98;;;;;;;4.63;86.90;100999.44;4966887;29;20074;-76
2021/11/23 07:57:07;;;;;;;3.75;0.95;;;;;;;4.61;86.84;100989.94;4966979;29;20059;-75
2021/11/23 07:59:33;;;;;;;2.75;0.70;;;;;;;4.90;86.82;101012.94;4965474;28;20024;-75
2021/11/23 08:01:58;;;;;;;2.22;0.80;;;;;;;4.99;86.26;100996.84;4966603;29;20034;-74
2021/11/23 08:04:23;;;;;;;1.95;0.68;;;;;;;5.17;84.99;101005.03;4966967;29;20510;-75
2021/11/23 08:06:49;;;;;;;1.75;1.20;;;;;;;5.25;84.72;101020.66;4967093;29;20026;-75
2021/11/23 08:09:14;;;;;;;0.88;0.68;;;;;;;5.28;84.06;101015.59;4966953;29;20061;-75
2021/11/23 08:11:39;;;;;;;1.30;0.70;;;;;;;5.08;84.13;101023.69;4966481;29;20031;-75
2021/11/23 08:14:05;;;;;;;1.48;0.80;;;;;;;4.98;84.29;101010.56;4966693;29;20087;-74
2021/11/23 08:16:30;;;;;;;0.95;0.57;;;;;;;4.94;84.16;101004.47;4966622;29;20038;-74
2021/11/23 08:18:55;;;;;;;2.67;0.82;;;;;;;4.84;84.03;101000.78;4977938;28;20051;-75
2021/11/23 08:21:21;;;;;;;2.45;1.00;;;;;;;4.80;84.45;101011.84;4948151;29;20030;-75
2021/11/23 08:23:46;;;;;;;1.52;0.80;;;;;;;4.64;85.36;101006.31;4947752;29;20055;-74
2021/11/23 08:26:12;;;;;;;3.65;1.55;;;;;;;4.77;85.81;100997.22;4947366;29;20024;-74
2021/11/23 08:28:38;;;;;;;4.72;1.20;;;;;;;4.89;85.57;100998.34;4962012;28;20034;-74
2021/11/23 08:31:03;;;;;;;1.83;0.80;;;;;;;5.08;85.98;101007.38;4947008;29;20047;-74
2021/11/23 08:33:29;;;;;;;1.35;0.98;;;;;;;5.12;85.33;101009.19;4947033;28;20063;-73
2021/11/23 08:35:54;;;;;;;4.82;1.25;;;;;;;5.14;85.44;101007.53;4947269;29;20050;-73
2021/11/23 08:38:20;;;;;;;4.25;1.42;;;;;;;5.23;85.17;101006.00;4947022;29;20027;-74
2021/11/23 08:40:46;;;;;;;2.92;1.25;;;;;;;5.37;85.04;101004.59;4946618;29;20031;-74
2021/11/23 08:43:11;;;;;;;2.92;1.27;;;;;;;5.68;85.44;100982.13;4961500;29;20027;-74
2021/11/23 08:45:37;;;;;;;4.88;1.42;;;;;;;6.45;85.18;100999.94;4947073;29;20035;-74
2021/11/23 08:48:03;;;;;;;3.47;1.05;;;;;;;6.99;84.17;101000.84;4946907;29;20028;-74
2021/11/23 08:50:29;;;;;;;1.13;0.82;;;;;;;7.30;83.11;101006.50;4946700;29;20024;-74
2021/11/23 08:52:57;;;;;;;2.88;1.02;;;;;;;7.48;82.17;100998.13;4947159;29;20034;-74
2021/11/23 08:55:24;;;;;;;3.30;1.00;;;;;;;7.74;82.69;100986.41;4946833;29;20501;-74
2021/11/23 08:57:49;;;;;;;2.60;1.30;;;;;;;8.34;82.05;100988.81;4946318;29;20107;-74
2021/11/23 09:00:20;;;;;;;2.92;0.98;;;;;;;8.89;81.25;100992.81;4977206;28;20062;-73
2021/11/23 09:02:49;;;;;;;3.83;1.27;;;;;;;9.18;79.98;100989.53;4946674;29;20027;-74
2021/11/23 09:05:16;;;;;;;3.45;1.23;;;;;;;9.14;79.42;101003.34;4946504;29;20091;-74
2021/11/23 09:07:42;;;;;;;2.80;0.98;;;;;;;9.27;79.76;100999.09;4946521;29;20024;-75
2021/11/23 09:10:13;;;;;;;5.47;1.30;;;;;;;8.87;79.07;100994.50;4946053;29;20031;-74
2021/11/23 09:12:39;;;;;;;4.75;1.30;;;;;;;8.54;79.28;101021.78;4945133;28;20024;-74
2021/11/23 09:15:05;;;;;;;4.90;1.25;;;;;;;8.05;80.46;101025.59;4946308;29;20032;-74
2021/11/23 09:17:30;;;;;;;5.43;2.25;;;;;;;8.11;81.38;101023.06;4953420;29;20510;-75
2021/11/23 09:19:55;;;;;;;2.55;1.20;;;;;;;8.27;81.03;101043.94;4979999;28;20033;-74
2021/11/23 09:22:21;;;;;;;4.13;1.20;;;;;;;8.44;81.48;101028.59;4947848;29;20352;-75
2021/11/23 09:24:46;;;;;;;2.20;1.10;;;;;;;8.91;81.01;100993.66;4964942;29;20027;-74
2021/11/23 09:27:12;;;;;;;5.13;1.20;;;;;;;9.67;79.59;100995.00;4965270;29;20027;-75
2021/11/23 09:29:38;;;;;;;5.07;1.35;;;;;;;10.26;78.28;100996.94;4965609;29;20059;-76
2021/11/23 09:32:04;;;;;;;3.50;0.85;;;;;;;10.84;76.90;100991.84;4965115;29;20051;-75
2021/11/23 09:34:30;;;;;;;4.00;1.13;;;;;;;11.07;75.78;101006.56;4965153;29;20043;-76
2021/11/23 09:36:55;;;;;;;3.58;1.20;;;;;;;10.79;75.98;101012.63;4965317;29;20063;-76
2021/11/23 09:39:22;;;;;;;3.90;1.50;;;;;;;10.66;74.96;101012.63;4965051;29;20019;-76
2021/11/23 09:41:47;;;;;;;2.50;1.10;;;;;;;10.42;75.40;101003.03;4965031;29;20033;-76
2021/11/23 09:44:13;;;;;;;4.18;1.45;;;;;;;10.27;75.67;101016.84;4965292;29;20103;-76
2021/11/23 09:46:39;;;;;;;5.80;1.27;;;;;;;10.24;75.98;101022.88;4963903;29;20105;-76
2021/11/23 09:49:07;;;;;;;4.28;1.40;;;;;;;10.20;74.95;101017.69;4965254;29;20026;-76
2021/11/23 09:51:34;;;;;;;3.30;1.15;;;;;;;9.72;75.24;101015.75;4965243;29;20023;-75
2021/11/23 09:54:06;;;;;;;7.20;2.08;;;;;;;9.16;75.65;101019.78;4947985;29;20078;-75
2021/11/23 09:56:31;;;;;;;;;;;;;;;8.75;77.68;101009.94;4965523;29;20055;-76
2021/11/23 09:58:58;;;;;;;4.30;1.35;;;;;;;8.53;78.79;100994.19;4965196;29;19919;-75
2021/11/23 10:01:26;;;;;;;4.68;1.15;;;;;;;8.80;78.85;101010.84;4964922;29;20063;-75
2021/11/23 10:03:53;;;;;;;3.75;1.60;;;;;;;8.72;78.63;101015.94;4965319;29;20027;-75
2021/11/23 10:06:22;;;;;;;3.42;1.70;;;;;;;8.60;78.94;100990.81;4964981;29;20019;-75
2021/11/23 10:08:49;;;;;;;4.07;1.52;;;;;;;8.69;79.40;101005.56;4965270;28;20027;-75
2021/11/23 10:11:22;;;;;;;8.57;2.00;;;;;;;8.82;79.74;101013.47;4968608;29;20023;-75
2021/11/23 10:14:00;;;;;;;5.00;1.45;;;;;;;8.54;79.86;101012.34;4968654;29;20027;-74
2021/11/23 10:16:39;;;;;;;2.88;1.15;;;;;;;8.23;80.95;100991.28;4968672;29;20027;-74
2021/11/23 10:19:11;;;;;;;6.38;1.70;;;;;;;8.26;82.28;101013.75;4968585;29;20059;-75
2021/11/23 10:21:48;;;;;;;;;;;;;;;8.35;84.16;101000.91;4983612;28;20424;-74
2021/11/23 10:24:16;;;;;;;2.83;1.50;;;;;;;8.60;84.46;100997.72;4968553;29;19918;-74
2021/11/23 10:26:42;;;;;;;4.85;1.73;;;;;;;8.56;84.19;101004.59;4968465;29;20050;-74
2021/11/23 10:29:08;;;;;;;1.80;0.98;;;;;;;8.42;84.69;101002.69;4968233;29;20024;-74
2021/11/23 10:31:36;;;;;;;6.72;1.42;;;;;;;8.41;85.40;101003.56;4968136;29;20043;-75
2021/11/23 10:34:07;;;;;;;7.68;1.20;;;;;;;8.54;86.60;100996.81;4950982;29;20023;-75
2021/11/23 10:36:38;;;;;;;3.78;1.35;;;;;;;8.76;87.03;100996.13;4968118;29;20026;-75
2021/11/23 10:39:19;;;;;;;6.35;1.70;;;;;;;8.88;86.95;100985.88;4967970;29;20019;-75
2021/11/23 10:41:53;;;;;;;6.53;1.50;;;;;;;8.95;87.23;100980.72;4967935;29;20027;-75
2021/11/23 10:44:20;;;;;;;3.75;1.42;;;;;;;9.00;87.08;100969.56;4950691;29;20031;-74
2021/11/23 10:47:00;;;;;;;4.35;1.70;;;;;;;9.20;86.94;100979.19;4967863;29;20051;-75
2021/11/23 10:49:32;;;;;;;3.08;1.67;;;;;;;9.38;86.32;100983.63;4966646;29;20058;-74
2021/11/23 10:51:59;;;;;;;6.28;1.30;;;;;;;9.49;85.79;100957.75;4967753;29;20038;-75
2021/11/23 10:54:29;;;;;;;3.60;1.20;;;;;;;9.87;84.80;100978.69;4967711;28;20033;-75
2021/11/23 10:56:54;;;;;;;2.50;1.35;;;;;;;10.09;83.52;100978.75;4950460;29;20341;-75
2021/11/23 10:59:20;;;;;;;3.78;1.35;;;;;;;10.30;82.14;100964.97;4967705;29;20027;-75
2021/11/23 11:01:45;;;;;;;5.43;1.40;;;;;;;10.66;80.28;100958.09;4967637;29;20023;-75
2021/11/23 11:04:14;;;;;;;5.70;1.55;;;;;;;11.10;77.39;100941.59;4949571;29;20027;-75
2021/11/23 11:06:39;;;;;;;1.85;1.08;;;;;;;11.73;75.06;100966.53;4965221;29;20029;-75
2021/11/23 11:09:05;;;;;;;4.40;1.40;;;;;;;12.08;73.38;100967.25;4967157;29;20110;-75
2021/11/23 11:11:31;;;;;;;11.02;2.15;;;;;;;11.85;73.29;100967.34;4982161;28;20019;-75
2021/11/23 11:13:57;;;;;;;5.32;1.35;;;;;;;11.28;74.62;100969.28;4967725;29;20106;-75
2021/11/23 11:16:23;;;;;;;3.47;1.23;;;;;;;10.76;76.10;100952.91;4967664;29;20023;-73
2021/11/23 11:19:04;;;;;;;5.38;1.58;;;;;;;10.23;76.54;100963.19;4967344;29;20488;-75
2021/11/23 11:21:30;;;;;;;4.78;1.40;;;;;;;9.66;78.26;100931.91;4966744;28;20050;-75
2021/11/23 11:24:22;;;;;;;4.88;1.40;;;;;;;9.30;79.67;100933.47;4950011;29;20472;-73
2021/11/23 11:26:52;;;;;;;5.55;1.75;;;;;;;9.20;80.49;100947.25;4967041;29;20061;-74
2021/11/23 11:29:29;;;;;;;3.67;1.40;;;;;;;8.73;79.98;100931.38;4966669;29;20027;-73
2021/11/23 11:31:55;;;;;;;4.57;1.40;;;;;;;8.60;80.54;100945.94;4966999;29;20026;-74